Portada
METAR-TAF:

METAR-TAF

Aeroports :

Santander, Espanya

latitud: 43-26N, longitud: 003-49W, altitud: 6 m

Observació

L'informe es va fer fa 21 minuts, a les 20:30 UTC
Vent 2 kt amb direcció variable
Temperatura 18°C
Humitat 83%
Pressió 1028 hPa
Visibilitat: 7000 m

METAR: LEXJ 262030Z AUTO VRB02KT 7000 NCD 18/15 Q1028

Hora: 22:51 (20:51 UTC)

Pronòstic

L'informe es va fer fa 51 minuts, a les 20:00 UTC
Pronòstic vàlid del 26 a les 21 UTC al 27 a les 21 UTC
Vent 5 kt amb direcció variable
Visibilitat 10 km o més
sense núvols per sota de 1500 mi sense presència de cumulonimbus.
Probabilitat 30% :
Temporalment
l' 26 a les 21 UTC al 26 a les 24 UTC
Visibilitat: 3000 m
boirina
Temporalment
l' 27 a les 11 UTC al 27 a les 18 UTC
Vent 10 kt del Nord-Est

TAF: LEXJ 262000Z 2621/2721 VRB05KT CAVOK TX24/2712Z TN12/2705Z PROB30 TEMPO 2621/2624 3000 BR TEMPO 2711/2718 05010KT

Observacions i pronòstics meteorològics de més de 4000 aeroports (METAR i TAF).

Les estacions disponibles són els punts grocs i vermells al mapa.

Posi el ratolí al punt desitjat per veure el nom de l'estació.

Feu clic per veure les observacions i els pronòstics meteorològics.

Per canviar el mapa: feu clic els botons verds amb una creu de color negre per apropar; al botó verd amb un guió per allunyar la imatge; o en les fletxes verdes per a mapes adjacents.


METAR-TAF: